Huvudsida
METAR-TAF:

METAR-TAF

Flygplatser :

Sundsvall Timrå Airport

Sundsvall-Härnösand, Sverige

latitud: 62-32N, longitud: 017-27E, höjd: 4 m

Aktuellt väderrapport

Denna rapport gjordes för 34 minuter sedan, klockan 17:20 UTC
Vind 13 kt från sydost
Temperatur 15°C
Fuktighet 31%
Tryck 1023 hPa
Sikt 10 km eller mer
Inga moln under 1 500 m eller inga cumulonimbus

METAR: ESNN 221720Z 13013KT CAVOK 15/M02 Q1023

Tid: 19:54 (17:54 UTC)

Väderprognos

Denna rapport gjordes för 24 minuter sedan, klockan 17:30 UTC
Prognos gäller från 22 kl. 18 UTC till 23 kl. 01 UTC
Vind 14 kt från sydost
Sikt 10 km eller mer
Inga moln under 1 500 m eller inga cumulonimbus
Blir
från 22 kl. 18 UTC till 22 kl. 20 UTC
Vind 4 kt från ost/sydost

TAF: ESNN 221730Z 2218/2301 13014KT CAVOK BECMG 2218/2220 12004KT

Aktuella väderrapporter och prognoser från 4000 flygplatser (METAR- och TAF-rapporter).

De tillgängliga stationerna syns som gula och röda prickar på kartan.

För musen över prickarna för att se namnen på stationerna.

Klicka sedan för att få väderrapporter och prognoser.

För att ändra kartan: Klicka på de gröna knapparna med ett svart kors på för att zooma in; den gröna knappen med ett streck på för att zooma ut; eller på de gröna pilarna för angränsande kartor.


METAR-TAF: